sensor_id;sensor_type;location;lat;lon;timestamp;P1;durP1;ratioP1;P2;durP2;ratioP2
41631;SDS011;37452;51.938;4.624;2023-02-18T00:02:13;22.15;;;9.65;;
41631;SDS011;37452;51.938;4.624;2023-02-18T00:07:03;26.25;;;10.50;;
41631;SDS011;37452;51.938;4.624;2023-02-18T00:09:28;22.42;;;10.25;;
41631;SDS011;37452;51.938;4.624;2023-02-18T00:14:19;21.02;;;9.70;;
41631;SDS011;37452;51.938;4.624;2023-02-18T00:19:14;22.27;;;9.68;;
41631;SDS011;37452;51.938;4.624;2023-02-18T00:21:42;24.33;;;9.82;;
41631;SDS011;37452;51.938;4.624;2023-02-18T00:24:07;23.15;;;9.02;;
41631;SDS011;37452;51.938;4.624;2023-02-18T00:26:35;26.08;;;10.68;;
41631;SDS011;37452;51.938;4.624;2023-02-18T00:29:00;27.80;;;10.20;;
41631;SDS011;37452;51.938;4.624;2023-02-18T00:31:28;25.02;;;9.70;;
41631;SDS011;37452;51.938;4.624;2023-02-18T00:33:55;20.63;;;9.23;;
41631;SDS011;37452;51.938;4.624;2023-02-18T00:36:22;30.50;;;10.75;;
41631;SDS011;37452;51.938;4.624;2023-02-18T00:38:49;22.40;;;9.75;;
41631;SDS011;37452;51.938;4.624;2023-02-18T00:41:16;24.38;;;10.32;;
41631;SDS011;37452;51.938;4.624;2023-02-18T00:43:42;27.50;;;10.52;;
41631;SDS011;37452;51.938;4.624;2023-02-18T00:46:08;28.70;;;11.15;;
41631;SDS011;37452;51.938;4.624;2023-02-18T00:48:34;27.45;;;10.48;;
41631;SDS011;37452;51.938;4.624;2023-02-18T00:50:59;27.65;;;10.15;;
41631;SDS011;37452;51.938;4.624;2023-02-18T00:53:26;26.92;;;12.77;;
41631;SDS011;37452;51.938;4.624;2023-02-18T00:55:52;24.10;;;10.70;;
41631;SDS011;37452;51.938;4.624;2023-02-18T00:58:18;24.13;;;11.27;;
41631;SDS011;37452;51.938;4.624;2023-02-18T01:03:09;26.15;;;10.88;;
41631;SDS011;37452;51.938;4.624;2023-02-18T01:05:34;28.33;;;11.68;;
41631;SDS011;37452;51.938;4.624;2023-02-18T01:08:01;32.63;;;12.30;;
41631;SDS011;37452;51.938;4.624;2023-02-18T01:10:27;30.13;;;12.35;;
41631;SDS011;37452;51.938;4.624;2023-02-18T01:12:52;37.78;;;12.23;;
41631;SDS011;37452;51.938;4.624;2023-02-18T01:15:17;30.08;;;12.40;;
41631;SDS011;37452;51.938;4.624;2023-02-18T01:17:43;35.92;;;13.93;;
41631;SDS011;37452;51.938;4.624;2023-02-18T01:20:09;29.95;;;12.77;;
41631;SDS011;37452;51.938;4.624;2023-02-18T01:22:35;29.25;;;12.25;;
41631;SDS011;37452;51.938;4.624;2023-02-18T01:25:01;38.05;;;13.73;;
41631;SDS011;37452;51.938;4.624;2023-02-18T01:27:26;32.55;;;12.48;;
41631;SDS011;37452;51.938;4.624;2023-02-18T01:29:52;35.95;;;13.55;;
41631;SDS011;37452;51.938;4.624;2023-02-18T01:32:17;29.05;;;11.88;;
41631;SDS011;37452;51.938;4.624;2023-02-18T01:34:42;36.60;;;13.82;;
41631;SDS011;37452;51.938;4.624;2023-02-18T01:39:33;25.77;;;12.02;;
41631;SDS011;37452;51.938;4.624;2023-02-18T01:44:25;40.30;;;14.45;;
41631;SDS011;37452;51.938;4.624;2023-02-18T01:46:51;32.17;;;13.30;;
41631;SDS011;37452;51.938;4.624;2023-02-18T01:49:27;43.00;;;14.82;;
41631;SDS011;37452;51.938;4.624;2023-02-18T01:52:04;37.17;;;14.70;;
41631;SDS011;37452;51.938;4.624;2023-02-18T01:54:34;34.85;;;14.70;;
41631;SDS011;37452;51.938;4.624;2023-02-18T01:57:06;42.25;;;15.55;;
41631;SDS011;37452;51.938;4.624;2023-02-18T01:59:39;40.45;;;15.43;;
41631;SDS011;37452;51.938;4.624;2023-02-18T02:02:10;41.08;;;15.48;;
41631;SDS011;37452;51.938;4.624;2023-02-18T02:04:38;38.65;;;15.38;;
41631;SDS011;37452;51.938;4.624;2023-02-18T02:07:03;40.20;;;15.55;;
41631;SDS011;37452;51.938;4.624;2023-02-18T02:09:29;40.95;;;16.10;;
41631;SDS011;37452;51.938;4.624;2023-02-18T02:14:39;31.20;;;13.15;;
41631;SDS011;37452;51.938;4.624;2023-02-18T02:17:36;37.42;;;13.82;;
41631;SDS011;37452;51.938;4.624;2023-02-18T02:20:25;31.73;;;11.18;;
41631;SDS011;37452;51.938;4.624;2023-02-18T02:26:06;34.45;;;12.95;;
41631;SDS011;37452;51.938;4.624;2023-02-18T02:28:48;32.40;;;11.95;;
41631;SDS011;37452;51.938;4.624;2023-02-18T02:53:26;12.00;;;5.38;;
41631;SDS011;37452;51.938;4.624;2023-02-18T02:55:53;13.15;;;5.55;;
41631;SDS011;37452;51.938;4.624;2023-02-18T02:58:20;10.15;;;4.43;;
41631;SDS011;37452;51.938;4.624;2023-02-18T03:01:02;12.95;;;4.82;;
41631;SDS011;37452;51.938;4.624;2023-02-18T03:09:24;8.82;;;3.92;;
41631;SDS011;37452;51.938;4.624;2023-02-18T03:14:56;12.35;;;4.75;;
41631;SDS011;37452;51.938;4.624;2023-02-18T03:17:30;11.85;;;4.88;;
41631;SDS011;37452;51.938;4.624;2023-02-18T03:20:08;13.57;;;5.85;;
41631;SDS011;37452;51.938;4.624;2023-02-18T03:22:38;15.55;;;5.85;;
41631;SDS011;37452;51.938;4.624;2023-02-18T03:25:08;17.73;;;5.75;;
41631;SDS011;37452;51.938;4.624;2023-02-18T03:27:36;16.10;;;5.40;;
41631;SDS011;37452;51.938;4.624;2023-02-18T03:32:41;14.10;;;5.70;;
41631;SDS011;37452;51.938;4.624;2023-02-18T03:35:10;12.23;;;5.13;;
41631;SDS011;37452;51.938;4.624;2023-02-18T03:37:41;9.75;;;4.50;;
41631;SDS011;37452;51.938;4.624;2023-02-18T03:40:11;14.45;;;5.32;;
41631;SDS011;37452;51.938;4.624;2023-02-18T03:42:36;18.88;;;5.90;;
41631;SDS011;37452;51.938;4.624;2023-02-18T03:45:02;12.73;;;5.57;;
41631;SDS011;37452;51.938;4.624;2023-02-18T03:47:28;10.85;;;4.72;;
41631;SDS011;37452;51.938;4.624;2023-02-18T03:49:53;11.07;;;4.28;;
41631;SDS011;37452;51.938;4.624;2023-02-18T03:52:19;10.60;;;4.63;;
41631;SDS011;37452;51.938;4.624;2023-02-18T03:57:09;12.82;;;5.22;;
41631;SDS011;37452;51.938;4.624;2023-02-18T03:59:34;9.85;;;5.10;;
41631;SDS011;37452;51.938;4.624;2023-02-18T04:02:00;10.95;;;4.97;;
41631;SDS011;37452;51.938;4.624;2023-02-18T04:04:26;10.73;;;4.50;;
41631;SDS011;37452;51.938;4.624;2023-02-18T04:06:52;11.25;;;4.47;;
41631;SDS011;37452;51.938;4.624;2023-02-18T04:09:17;9.85;;;4.35;;
41631;SDS011;37452;51.938;4.624;2023-02-18T04:14:08;11.82;;;4.28;;
41631;SDS011;37452;51.938;4.624;2023-02-18T04:16:37;10.00;;;4.68;;
41631;SDS011;37452;51.938;4.624;2023-02-18T04:19:02;11.68;;;5.55;;
41631;SDS011;37452;51.938;4.624;2023-02-18T04:21:27;11.43;;;5.63;;
41631;SDS011;37452;51.938;4.624;2023-02-18T04:23:53;15.02;;;6.22;;
41631;SDS011;37452;51.938;4.624;2023-02-18T04:26:18;14.45;;;6.28;;
41631;SDS011;37452;51.938;4.624;2023-02-18T04:28:43;15.82;;;6.40;;
41631;SDS011;37452;51.938;4.624;2023-02-18T04:31:08;15.68;;;7.18;;
41631;SDS011;37452;51.938;4.624;2023-02-18T04:33:35;13.23;;;5.90;;
41631;SDS011;37452;51.938;4.624;2023-02-18T04:36:00;13.35;;;6.50;;
41631;SDS011;37452;51.938;4.624;2023-02-18T04:38:26;15.00;;;7.32;;
41631;SDS011;37452;51.938;4.624;2023-02-18T04:40:51;16.85;;;8.13;;
41631;SDS011;37452;51.938;4.624;2023-02-18T04:43:16;19.95;;;8.45;;
41631;SDS011;37452;51.938;4.624;2023-02-18T04:45:42;24.58;;;8.85;;
41631;SDS011;37452;51.938;4.624;2023-02-18T04:48:07;21.70;;;9.27;;
41631;SDS011;37452;51.938;4.624;2023-02-18T04:50:32;20.60;;;9.00;;
41631;SDS011;37452;51.938;4.624;2023-02-18T04:52:58;26.35;;;10.27;;
41631;SDS011;37452;51.938;4.624;2023-02-18T04:55:23;22.27;;;10.00;;
41631;SDS011;37452;51.938;4.624;2023-02-18T05:00:15;22.58;;;9.45;;
41631;SDS011;37452;51.938;4.624;2023-02-18T05:02:42;20.15;;;9.65;;
41631;SDS011;37452;51.938;4.624;2023-02-18T05:05:08;15.20;;;7.70;;
41631;SDS011;37452;51.938;4.624;2023-02-18T05:07:33;19.10;;;8.02;;
41631;SDS011;37452;51.938;4.624;2023-02-18T05:09:58;19.13;;;7.45;;
41631;SDS011;37452;51.938;4.624;2023-02-18T05:14:49;20.42;;;8.52;;
41631;SDS011;37452;51.938;4.624;2023-02-18T05:17:14;17.30;;;8.10;;
41631;SDS011;37452;51.938;4.624;2023-02-18T05:19:39;18.85;;;8.60;;
41631;SDS011;37452;51.938;4.624;2023-02-18T05:22:05;21.50;;;7.53;;
41631;SDS011;37452;51.938;4.624;2023-02-18T05:26:55;19.05;;;8.45;;
41631;SDS011;37452;51.938;4.624;2023-02-18T05:29:21;24.58;;;9.98;;
41631;SDS011;37452;51.938;4.624;2023-02-18T05:31:46;24.40;;;9.40;;
41631;SDS011;37452;51.938;4.624;2023-02-18T05:36:37;18.52;;;7.88;;
41631;SDS011;37452;51.938;4.624;2023-02-18T05:41:28;21.33;;;8.52;;
41631;SDS011;37452;51.938;4.624;2023-02-18T05:43:53;31.77;;;9.45;;
41631;SDS011;37452;51.938;4.624;2023-02-18T05:46:37;24.63;;;9.20;;
41631;SDS011;37452;51.938;4.624;2023-02-18T05:49:02;28.35;;;9.68;;
41631;SDS011;37452;51.938;4.624;2023-02-18T05:51:27;25.38;;;9.50;;
41631;SDS011;37452;51.938;4.624;2023-02-18T05:53:53;28.02;;;10.10;;
41631;SDS011;37452;51.938;4.624;2023-02-18T05:56:19;24.20;;;9.48;;
41631;SDS011;37452;51.938;4.624;2023-02-18T05:58:44;27.85;;;9.85;;
41631;SDS011;37452;51.938;4.624;2023-02-18T06:01:10;27.40;;;9.13;;
41631;SDS011;37452;51.938;4.624;2023-02-18T06:06:00;30.58;;;9.52;;
41631;SDS011;37452;51.938;4.624;2023-02-18T06:10:51;27.05;;;9.60;;
41631;SDS011;37452;51.938;4.624;2023-02-18T06:13:17;26.27;;;9.30;;
41631;SDS011;37452;51.938;4.624;2023-02-18T06:15:42;45.38;;;11.65;;
41631;SDS011;37452;51.938;4.624;2023-02-18T06:18:07;34.45;;;10.18;;
41631;SDS011;37452;51.938;4.624;2023-02-18T06:20:33;27.52;;;10.55;;
41631;SDS011;37452;51.938;4.624;2023-02-18T06:22:58;30.00;;;10.30;;
41631;SDS011;37452;51.938;4.624;2023-02-18T06:25:23;25.67;;;9.30;;
41631;SDS011;37452;51.938;4.624;2023-02-18T06:27:49;29.45;;;8.07;;
41631;SDS011;37452;51.938;4.624;2023-02-18T06:30:14;25.42;;;8.57;;
41631;SDS011;37452;51.938;4.624;2023-02-18T06:32:40;23.27;;;7.70;;
41631;SDS011;37452;51.938;4.624;2023-02-18T06:35:05;18.98;;;7.85;;
41631;SDS011;37452;51.938;4.624;2023-02-18T06:37:31;27.08;;;8.02;;
41631;SDS011;37452;51.938;4.624;2023-02-18T06:39:57;24.73;;;6.78;;
41631;SDS011;37452;51.938;4.624;2023-02-18T06:42:22;18.70;;;7.78;;
41631;SDS011;37452;51.938;4.624;2023-02-18T06:44:47;29.60;;;7.40;;
41631;SDS011;37452;51.938;4.624;2023-02-18T06:47:13;19.88;;;6.50;;
41631;SDS011;37452;51.938;4.624;2023-02-18T06:52:03;21.98;;;5.93;;
41631;SDS011;37452;51.938;4.624;2023-02-18T06:54:29;23.80;;;5.93;;
41631;SDS011;37452;51.938;4.624;2023-02-18T06:56:55;34.03;;;6.32;;
41631;SDS011;37452;51.938;4.624;2023-02-18T06:59:20;31.13;;;5.95;;
41631;SDS011;37452;51.938;4.624;2023-02-18T07:04:10;30.75;;;6.18;;
41631;SDS011;37452;51.938;4.624;2023-02-18T07:06:36;31.05;;;5.68;;
41631;SDS011;37452;51.938;4.624;2023-02-18T07:11:26;27.92;;;5.10;;
41631;SDS011;37452;51.938;4.624;2023-02-18T07:16:17;26.45;;;4.70;;
41631;SDS011;37452;51.938;4.624;2023-02-18T07:21:07;31.40;;;4.30;;
41631;SDS011;37452;51.938;4.624;2023-02-18T07:23:33;26.98;;;4.38;;
41631;SDS011;37452;51.938;4.624;2023-02-18T07:26:02;24.98;;;3.80;;
41631;SDS011;37452;51.938;4.624;2023-02-18T07:28:32;27.58;;;3.30;;
41631;SDS011;37452;51.938;4.624;2023-02-18T07:30:57;13.43;;;2.83;;
41631;SDS011;37452;51.938;4.624;2023-02-18T07:33:22;22.73;;;3.05;;
41631;SDS011;37452;51.938;4.624;2023-02-18T07:35:52;37.38;;;3.58;;
41631;SDS011;37452;51.938;4.624;2023-02-18T07:38:18;18.83;;;2.30;;
41631;SDS011;37452;51.938;4.624;2023-02-18T07:40:44;17.42;;;2.75;;
41631;SDS011;37452;51.938;4.624;2023-02-18T07:45:36;19.95;;;3.22;;
41631;SDS011;37452;51.938;4.624;2023-02-18T07:48:02;22.30;;;3.47;;
41631;SDS011;37452;51.938;4.624;2023-02-18T07:50:27;13.00;;;2.70;;
41631;SDS011;37452;51.938;4.624;2023-02-18T07:52:53;22.77;;;2.90;;
41631;SDS011;37452;51.938;4.624;2023-02-18T07:57:43;13.13;;;2.45;;
41631;SDS011;37452;51.938;4.624;2023-02-18T08:00:21;21.90;;;3.17;;
41631;SDS011;37452;51.938;4.624;2023-02-18T08:02:47;14.63;;;2.60;;
41631;SDS011;37452;51.938;4.624;2023-02-18T08:05:12;19.02;;;2.40;;
41631;SDS011;37452;51.938;4.624;2023-02-18T08:10:04;24.90;;;2.45;;
41631;SDS011;37452;51.938;4.624;2023-02-18T08:12:29;13.95;;;2.28;;
41631;SDS011;37452;51.938;4.624;2023-02-18T08:17:20;16.42;;;3.30;;
41631;SDS011;37452;51.938;4.624;2023-02-18T08:22:10;20.00;;;2.50;;
41631;SDS011;37452;51.938;4.624;2023-02-18T08:27:01;9.00;;;2.03;;
41631;SDS011;37452;51.938;4.624;2023-02-18T08:31:51;15.05;;;2.28;;
41631;SDS011;37452;51.938;4.624;2023-02-18T08:34:18;19.67;;;2.53;;
41631;SDS011;37452;51.938;4.624;2023-02-18T08:36:43;15.15;;;2.35;;
41631;SDS011;37452;51.938;4.624;2023-02-18T08:39:08;16.80;;;2.22;;
41631;SDS011;37452;51.938;4.624;2023-02-18T08:43:59;12.68;;;2.08;;
41631;SDS011;37452;51.938;4.624;2023-02-18T08:48:49;15.18;;;2.20;;
41631;SDS011;37452;51.938;4.624;2023-02-18T08:51:19;16.17;;;1.83;;
41631;SDS011;37452;51.938;4.624;2023-02-18T08:53:46;14.40;;;2.05;;
41631;SDS011;37452;51.938;4.624;2023-02-18T08:56:12;14.55;;;1.88;;
41631;SDS011;37452;51.938;4.624;2023-02-18T08:58:39;20.33;;;2.28;;
41631;SDS011;37452;51.938;4.624;2023-02-18T09:01:05;14.30;;;2.67;;
41631;SDS011;37452;51.938;4.624;2023-02-18T09:03:32;20.70;;;3.03;;
41631;SDS011;37452;51.938;4.624;2023-02-18T09:05:58;16.20;;;2.60;;
41631;SDS011;37452;51.938;4.624;2023-02-18T09:08:24;17.35;;;2.10;;
41631;SDS011;37452;51.938;4.624;2023-02-18T09:10:54;19.45;;;2.58;;
41631;SDS011;37452;51.938;4.624;2023-02-18T09:13:23;18.25;;;1.80;;
41631;SDS011;37452;51.938;4.624;2023-02-18T09:15:56;14.85;;;2.35;;
41631;SDS011;37452;51.938;4.624;2023-02-18T09:18:27;11.30;;;2.78;;
41631;SDS011;37452;51.938;4.624;2023-02-18T09:20:54;18.45;;;2.70;;
41631;SDS011;37452;51.938;4.624;2023-02-18T09:23:21;10.13;;;2.42;;
41631;SDS011;37452;51.938;4.624;2023-02-18T09:25:46;14.13;;;2.30;;
41631;SDS011;37452;51.938;4.624;2023-02-18T09:30:38;10.93;;;2.30;;
41631;SDS011;37452;51.938;4.624;2023-02-18T09:33:03;20.33;;;2.85;;
41631;SDS011;37452;51.938;4.624;2023-02-18T09:35:29;15.02;;;2.53;;
41631;SDS011;37452;51.938;4.624;2023-02-18T09:37:54;23.63;;;2.72;;
41631;SDS011;37452;51.938;4.624;2023-02-18T09:40:28;23.35;;;3.20;;
41631;SDS011;37452;51.938;4.624;2023-02-18T09:42:56;18.98;;;3.03;;
41631;SDS011;37452;51.938;4.624;2023-02-18T09:45:23;16.75;;;2.45;;
41631;SDS011;37452;51.938;4.624;2023-02-18T09:47:49;17.63;;;3.03;;
41631;SDS011;37452;51.938;4.624;2023-02-18T09:50:25;26.95;;;3.50;;
41631;SDS011;37452;51.938;4.624;2023-02-18T09:52:57;15.95;;;2.22;;
41631;SDS011;37452;51.938;4.624;2023-02-18T09:55:26;9.68;;;2.30;;
41631;SDS011;37452;51.938;4.624;2023-02-18T09:58:04;15.00;;;2.10;;
41631;SDS011;37452;51.938;4.624;2023-02-18T10:00:37;17.42;;;2.40;;
41631;SDS011;37452;51.938;4.624;2023-02-18T10:03:06;21.48;;;2.88;;
41631;SDS011;37452;51.938;4.624;2023-02-18T10:05:40;17.98;;;2.47;;
41631;SDS011;37452;51.938;4.624;2023-02-18T10:08:22;15.35;;;3.35;;
41631;SDS011;37452;51.938;4.624;2023-02-18T10:10:50;13.30;;;2.20;;
41631;SDS011;37452;51.938;4.624;2023-02-18T10:13:16;21.27;;;2.42;;
41631;SDS011;37452;51.938;4.624;2023-02-18T10:15:44;11.93;;;1.92;;
41631;SDS011;37452;51.938;4.624;2023-02-18T10:18:15;15.23;;;1.95;;
41631;SDS011;37452;51.938;4.624;2023-02-18T10:20:42;12.13;;;1.88;;
41631;SDS011;37452;51.938;4.624;2023-02-18T10:23:07;12.98;;;1.80;;
41631;SDS011;37452;51.938;4.624;2023-02-18T10:25:35;20.17;;;2.35;;
41631;SDS011;37452;51.938;4.624;2023-02-18T10:28:07;9.43;;;2.13;;
41631;SDS011;37452;51.938;4.624;2023-02-18T10:30:41;12.93;;;2.08;;
41631;SDS011;37452;51.938;4.624;2023-02-18T10:42:19;18.85;;;2.45;;
41631;SDS011;37452;51.938;4.624;2023-02-18T10:52:18;11.60;;;1.73;;
41631;SDS011;37452;51.938;4.624;2023-02-18T10:57:22;16.60;;;1.95;;
41631;SDS011;37452;51.938;4.624;2023-02-18T11:02:38;13.57;;;2.38;;
41631;SDS011;37452;51.938;4.624;2023-02-18T11:05:11;13.40;;;3.08;;
41631;SDS011;37452;51.938;4.624;2023-02-18T11:07:47;14.27;;;1.90;;
41631;SDS011;37452;51.938;4.624;2023-02-18T11:12:43;14.80;;;2.13;;
41631;SDS011;37452;51.938;4.624;2023-02-18T11:15:16;9.35;;;2.30;;
41631;SDS011;37452;51.938;4.624;2023-02-18T11:17:47;11.82;;;2.15;;
41631;SDS011;37452;51.938;4.624;2023-02-18T11:22:50;17.27;;;2.33;;
41631;SDS011;37452;51.938;4.624;2023-02-18T11:27:45;15.50;;;1.98;;
41631;SDS011;37452;51.938;4.624;2023-02-18T11:30:32;17.23;;;2.20;;
41631;SDS011;37452;51.938;4.624;2023-02-18T11:33:20;15.85;;;1.88;;
41631;SDS011;37452;51.938;4.624;2023-02-18T11:35:54;15.10;;;2.28;;
41631;SDS011;37452;51.938;4.624;2023-02-18T11:38:29;12.20;;;2.28;;
41631;SDS011;37452;51.938;4.624;2023-02-18T11:41:12;14.10;;;2.33;;
41631;SDS011;37452;51.938;4.624;2023-02-18T11:43:41;10.05;;;1.90;;
41631;SDS011;37452;51.938;4.624;2023-02-18T11:48:48;7.18;;;1.58;;
41631;SDS011;37452;51.938;4.624;2023-02-18T11:51:27;15.63;;;2.28;;
41631;SDS011;37452;51.938;4.624;2023-02-18T11:56:31;19.98;;;2.60;;
41631;SDS011;37452;51.938;4.624;2023-02-18T11:58:59;9.48;;;1.75;;
41631;SDS011;37452;51.938;4.624;2023-02-18T12:09:34;10.98;;;2.00;;
41631;SDS011;37452;51.938;4.624;2023-02-18T12:12:13;16.38;;;2.10;;
41631;SDS011;37452;51.938;4.624;2023-02-18T12:14:42;19.33;;;2.22;;
41631;SDS011;37452;51.938;4.624;2023-02-18T12:23:27;13.32;;;2.03;;
41631;SDS011;37452;51.938;4.624;2023-02-18T12:31:46;7.35;;;1.27;;
41631;SDS011;37452;51.938;4.624;2023-02-18T12:40:00;13.25;;;1.88;;
41631;SDS011;37452;51.938;4.624;2023-02-18T12:52:08;9.48;;;1.65;;
41631;SDS011;37452;51.938;4.624;2023-02-18T12:54:46;13.68;;;1.90;;
41631;SDS011;37452;51.938;4.624;2023-02-18T13:13:49;13.50;;;2.22;;
41631;SDS011;37452;51.938;4.624;2023-02-18T13:16:37;9.35;;;1.50;;
41631;SDS011;37452;51.938;4.624;2023-02-18T13:19:21;13.65;;;2.35;;
41631;SDS011;37452;51.938;4.624;2023-02-18T13:21:52;14.67;;;1.97;;
41631;SDS011;37452;51.938;4.624;2023-02-18T13:24:30;13.80;;;2.22;;
41631;SDS011;37452;51.938;4.624;2023-02-18T13:35:24;11.45;;;1.80;;
41631;SDS011;37452;51.938;4.624;2023-02-18T13:40:49;12.80;;;2.55;;
41631;SDS011;37452;51.938;4.624;2023-02-18T13:46:17;14.57;;;1.83;;
41631;SDS011;37452;51.938;4.624;2023-02-18T13:51:15;13.65;;;1.83;;
41631;SDS011;37452;51.938;4.624;2023-02-18T13:56:47;17.27;;;1.67;;
41631;SDS011;37452;51.938;4.624;2023-02-18T13:59:16;9.88;;;2.35;;
41631;SDS011;37452;51.938;4.624;2023-02-18T14:01:46;13.27;;;2.10;;
41631;SDS011;37452;51.938;4.624;2023-02-18T14:17:42;8.70;;;1.92;;
41631;SDS011;37452;51.938;4.624;2023-02-18T14:22:44;10.30;;;1.92;;
41631;SDS011;37452;51.938;4.624;2023-02-18T14:27:38;13.18;;;2.25;;
41631;SDS011;37452;51.938;4.624;2023-02-18T14:30:28;16.40;;;1.85;;
41631;SDS011;37452;51.938;4.624;2023-02-18T14:32:55;9.20;;;2.30;;
41631;SDS011;37452;51.938;4.624;2023-02-18T14:35:29;18.52;;;2.65;;
41631;SDS011;37452;51.938;4.624;2023-02-18T14:39:02;13.45;;;1.98;;
41631;SDS011;37452;51.938;4.624;2023-02-18T14:49:32;12.63;;;2.25;;
41631;SDS011;37452;51.938;4.624;2023-02-18T14:52:04;12.68;;;2.42;;
41631;SDS011;37452;51.938;4.624;2023-02-18T14:54:35;14.27;;;2.38;;
41631;SDS011;37452;51.938;4.624;2023-02-18T14:57:05;12.93;;;2.40;;
41631;SDS011;37452;51.938;4.624;2023-02-18T14:59:34;16.95;;;2.67;;
41631;SDS011;37452;51.938;4.624;2023-02-18T15:02:08;10.75;;;1.80;;
41631;SDS011;37452;51.938;4.624;2023-02-18T15:04:42;12.25;;;2.17;;
41631;SDS011;37452;51.938;4.624;2023-02-18T15:07:09;9.05;;;1.77;;
41631;SDS011;37452;51.938;4.624;2023-02-18T15:09:43;12.13;;;2.65;;
41631;SDS011;37452;51.938;4.624;2023-02-18T15:12:09;11.32;;;2.35;;
41631;SDS011;37452;51.938;4.624;2023-02-18T15:14:39;12.85;;;1.88;;
41631;SDS011;37452;51.938;4.624;2023-02-18T15:17:07;8.25;;;2.00;;
41631;SDS011;37452;51.938;4.624;2023-02-18T15:19:39;20.15;;;2.95;;
41631;SDS011;37452;51.938;4.624;2023-02-18T15:22:20;11.73;;;2.25;;
41631;SDS011;37452;51.938;4.624;2023-02-18T15:24:48;13.30;;;1.77;;
41631;SDS011;37452;51.938;4.624;2023-02-18T15:27:24;13.75;;;2.08;;
41631;SDS011;37452;51.938;4.624;2023-02-18T15:29:56;14.63;;;2.08;;
41631;SDS011;37452;51.938;4.624;2023-02-18T15:32:24;6.53;;;1.65;;
41631;SDS011;37452;51.938;4.624;2023-02-18T15:35:01;14.52;;;1.67;;
41631;SDS011;37452;51.938;4.624;2023-02-18T15:39:53;23.00;;;2.87;;
41631;SDS011;37452;51.938;4.624;2023-02-18T15:45:01;12.90;;;2.20;;
41631;SDS011;37452;51.938;4.624;2023-02-18T15:47:42;17.80;;;2.63;;
41631;SDS011;37452;51.938;4.624;2023-02-18T15:50:16;8.95;;;2.20;;
41631;SDS011;37452;51.938;4.624;2023-02-18T15:52:44;12.93;;;1.92;;
41631;SDS011;37452;51.938;4.624;2023-02-18T15:55:12;15.02;;;2.05;;
41631;SDS011;37452;51.938;4.624;2023-02-18T15:57:51;14.52;;;2.05;;
41631;SDS011;37452;51.938;4.624;2023-02-18T16:00:19;15.15;;;2.45;;
41631;SDS011;37452;51.938;4.624;2023-02-18T16:03:19;17.95;;;2.58;;
41631;SDS011;37452;51.938;4.624;2023-02-18T16:05:43;13.75;;;2.45;;
41631;SDS011;37452;51.938;4.624;2023-02-18T16:08:25;15.85;;;2.60;;
41631;SDS011;37452;51.938;4.624;2023-02-18T16:13:21;14.10;;;2.70;;
41631;SDS011;37452;51.938;4.624;2023-02-18T16:15:48;22.60;;;4.38;;
41631;SDS011;37452;51.938;4.624;2023-02-18T16:18:34;11.80;;;2.38;;
41631;SDS011;37452;51.938;4.624;2023-02-18T16:21:04;17.23;;;2.80;;
41631;SDS011;37452;51.938;4.624;2023-02-18T16:23:52;12.50;;;2.60;;
41631;SDS011;37452;51.938;4.624;2023-02-18T16:26:26;15.70;;;2.40;;
41631;SDS011;37452;51.938;4.624;2023-02-18T16:29:10;19.38;;;3.13;;
41631;SDS011;37452;51.938;4.624;2023-02-18T16:31:47;15.75;;;2.58;;
41631;SDS011;37452;51.938;4.624;2023-02-18T16:34:12;11.40;;;2.55;;
41631;SDS011;37452;51.938;4.624;2023-02-18T16:36:38;15.00;;;2.58;;
41631;SDS011;37452;51.938;4.624;2023-02-18T16:39:23;16.67;;;3.05;;
41631;SDS011;37452;51.938;4.624;2023-02-18T16:41:49;12.82;;;2.45;;
41631;SDS011;37452;51.938;4.624;2023-02-18T16:44:14;20.55;;;2.45;;
41631;SDS011;37452;51.938;4.624;2023-02-18T16:46:39;18.20;;;2.88;;
41631;SDS011;37452;51.938;4.624;2023-02-18T16:49:07;21.13;;;3.03;;
41631;SDS011;37452;51.938;4.624;2023-02-18T16:51:38;18.85;;;3.38;;
41631;SDS011;37452;51.938;4.624;2023-02-18T16:54:03;11.88;;;2.78;;
41631;SDS011;37452;51.938;4.624;2023-02-18T16:56:30;16.70;;;3.20;;
41631;SDS011;37452;51.938;4.624;2023-02-18T16:58:58;25.27;;;3.83;;
41631;SDS011;37452;51.938;4.624;2023-02-18T17:03:48;18.05;;;4.00;;
41631;SDS011;37452;51.938;4.624;2023-02-18T17:06:14;16.92;;;4.97;;
41631;SDS011;37452;51.938;4.624;2023-02-18T17:08:40;18.63;;;5.55;;
41631;SDS011;37452;51.938;4.624;2023-02-18T17:11:05;23.17;;;4.60;;
41631;SDS011;37452;51.938;4.624;2023-02-18T17:13:34;21.40;;;4.18;;
41631;SDS011;37452;51.938;4.624;2023-02-18T17:15:59;24.55;;;4.10;;
41631;SDS011;37452;51.938;4.624;2023-02-18T17:18:24;22.65;;;4.38;;
41631;SDS011;37452;51.938;4.624;2023-02-18T17:20:50;25.08;;;4.65;;
41631;SDS011;37452;51.938;4.624;2023-02-18T17:23:18;20.70;;;4.20;;
41631;SDS011;37452;51.938;4.624;2023-02-18T17:25:47;20.85;;;3.83;;
41631;SDS011;37452;51.938;4.624;2023-02-18T17:28:13;25.13;;;4.35;;
41631;SDS011;37452;51.938;4.624;2023-02-18T17:30:42;13.43;;;3.35;;
41631;SDS011;37452;51.938;4.624;2023-02-18T17:33:11;21.20;;;4.30;;
41631;SDS011;37452;51.938;4.624;2023-02-18T17:35:39;20.25;;;4.47;;
41631;SDS011;37452;51.938;4.624;2023-02-18T17:38:15;21.90;;;5.20;;
41631;SDS011;37452;51.938;4.624;2023-02-18T17:40:41;18.95;;;4.22;;
41631;SDS011;37452;51.938;4.624;2023-02-18T17:43:14;21.13;;;5.43;;
41631;SDS011;37452;51.938;4.624;2023-02-18T17:45:42;24.42;;;4.57;;
41631;SDS011;37452;51.938;4.624;2023-02-18T17:48:12;14.80;;;3.90;;
41631;SDS011;37452;51.938;4.624;2023-02-18T17:50:37;15.95;;;4.25;;
41631;SDS011;37452;51.938;4.624;2023-02-18T17:53:02;25.23;;;5.43;;
41631;SDS011;37452;51.938;4.624;2023-02-18T17:55:33;22.05;;;4.55;;
41631;SDS011;37452;51.938;4.624;2023-02-18T17:57:59;25.00;;;4.47;;
41631;SDS011;37452;51.938;4.624;2023-02-18T18:00:32;24.25;;;6.85;;
41631;SDS011;37452;51.938;4.624;2023-02-18T18:03:00;21.52;;;6.45;;
41631;SDS011;37452;51.938;4.624;2023-02-18T18:05:27;27.45;;;6.93;;
41631;SDS011;37452;51.938;4.624;2023-02-18T18:07:55;19.77;;;5.53;;
41631;SDS011;37452;51.938;4.624;2023-02-18T18:10:22;19.50;;;5.88;;
41631;SDS011;37452;51.938;4.624;2023-02-18T18:12:52;24.77;;;6.05;;
41631;SDS011;37452;51.938;4.624;2023-02-18T18:15:26;26.85;;;6.35;;
41631;SDS011;37452;51.938;4.624;2023-02-18T18:17:51;24.95;;;5.85;;
41631;SDS011;37452;51.938;4.624;2023-02-18T18:20:18;20.55;;;6.00;;
41631;SDS011;37452;51.938;4.624;2023-02-18T18:22:44;23.08;;;6.35;;
41631;SDS011;37452;51.938;4.624;2023-02-18T18:27:46;24.73;;;7.20;;
41631;SDS011;37452;51.938;4.624;2023-02-18T18:32:37;23.77;;;6.43;;
41631;SDS011;37452;51.938;4.624;2023-02-18T18:35:02;22.50;;;6.35;;
41631;SDS011;37452;51.938;4.624;2023-02-18T18:37:28;21.60;;;7.40;;
41631;SDS011;37452;51.938;4.624;2023-02-18T18:39:53;25.15;;;7.05;;
41631;SDS011;37452;51.938;4.624;2023-02-18T18:42:18;25.15;;;8.50;;
41631;SDS011;37452;51.938;4.624;2023-02-18T18:44:44;22.15;;;7.40;;
41631;SDS011;37452;51.938;4.624;2023-02-18T18:47:09;30.88;;;8.50;;
41631;SDS011;37452;51.938;4.624;2023-02-18T18:49:36;28.88;;;8.52;;
41631;SDS011;37452;51.938;4.624;2023-02-18T18:52:02;29.63;;;9.07;;
41631;SDS011;37452;51.938;4.624;2023-02-18T18:54:28;27.08;;;7.97;;
41631;SDS011;37452;51.938;4.624;2023-02-18T18:56:53;34.67;;;8.73;;
41631;SDS011;37452;51.938;4.624;2023-02-18T18:59:19;32.20;;;8.82;;
41631;SDS011;37452;51.938;4.624;2023-02-18T19:01:44;27.58;;;8.90;;
41631;SDS011;37452;51.938;4.624;2023-02-18T19:04:09;23.92;;;8.20;;